Leonard, North Dakota
Current Conditions -  °F | °C
As of 1:53 AM on Friday 19 Dec 2014 (Local Time) from KFAR Reporting Station
Haze Haze  
Wind Chill:   Ceiling: 1200
Heat Index: 22°   Visibility: 6mi
Dew Point: 18°   Wind: 14mph
Humidity: 85%   Direction: 150°SSE
Pressure: 30.14"   Gusts: NA
Location:  46.65°N, 97.25°W
Report Text: KFAR 190753Z 15012KT 6SM BR BKN012 OVC041 M06/M08 A3014 RMK AO2 SLP223 T10561078
Loading
Personal Weather Stations






























Interactive Weather Map New forecast layout! Learn more

10-Day Weather Forecast

Advertisements
Track Severe Weather on mobile